createdAt,value
2022-09-17T00:01:44.768Z,1.35
2022-09-17T00:04:14.822Z,1.58
2022-09-17T00:06:43.713Z,1.60
2022-09-17T00:09:12.888Z,1.73
2022-09-17T00:11:43.473Z,1.00
2022-09-17T00:14:16.291Z,1.20
2022-09-17T00:16:46.718Z,1.73
2022-09-17T00:19:20.117Z,1.20
2022-09-17T00:21:49.220Z,1.80
2022-09-17T00:24:18.874Z,1.13
2022-09-17T00:26:47.934Z,1.30
2022-09-17T00:29:16.909Z,1.60
2022-09-17T00:31:45.839Z,1.50
2022-09-17T00:34:14.405Z,1.63
2022-09-17T00:36:44.457Z,1.33
2022-09-17T00:39:15.756Z,1.15
2022-09-17T00:41:44.881Z,1.30
2022-09-17T00:44:44.380Z,1.63
2022-09-17T00:47:18.096Z,1.40
2022-09-17T00:49:47.607Z,1.48
2022-09-17T00:52:21.722Z,1.15
2022-09-17T00:54:57.740Z,1.80
2022-09-17T00:57:26.462Z,1.20
2022-09-17T00:59:55.959Z,1.58
2022-09-17T01:02:24.799Z,1.02
2022-09-17T01:04:53.541Z,1.20
2022-09-17T01:07:41.136Z,1.00
2022-09-17T01:10:35.572Z,1.27
2022-09-17T01:13:16.831Z,1.25
2022-09-17T01:15:53.071Z,1.30
2022-09-17T01:18:38.171Z,1.33
2022-09-17T01:21:45.119Z,1.38
2022-09-17T01:24:49.762Z,1.10
2022-09-17T01:27:48.288Z,1.35
2022-09-17T01:30:36.220Z,1.35
2022-09-17T01:33:15.462Z,1.08
2022-09-17T01:35:51.224Z,1.50
2022-09-17T01:38:28.466Z,1.48
2022-09-17T01:41:06.262Z,1.10
2022-09-17T01:43:40.163Z,1.10
2022-09-17T01:46:15.495Z,1.23
2022-09-17T01:48:48.775Z,1.05
2022-09-17T01:51:22.265Z,1.50
2022-09-17T01:53:54.503Z,1.25
2022-09-17T01:56:26.492Z,1.23
2022-09-17T01:59:00.734Z,1.20
2022-09-17T02:01:33.287Z,1.95
2022-09-17T02:04:09.733Z,1.25
2022-09-17T02:06:43.435Z,1.42
2022-09-17T02:09:16.581Z,1.40
2022-09-17T02:11:51.643Z,0.98
2022-09-17T02:14:25.388Z,1.08
2022-09-17T02:16:59.438Z,1.52
2022-09-17T02:19:32.252Z,1.30
2022-09-17T02:22:04.684Z,1.30
2022-09-17T02:24:38.839Z,1.20
2022-09-17T02:27:13.464Z,1.00
2022-09-17T02:29:45.048Z,1.00
2022-09-17T02:32:14.442Z,1.02
2022-09-17T02:34:44.591Z,1.33
2022-09-17T02:37:13.375Z,0.98
2022-09-17T02:39:42.513Z,0.90
2022-09-17T02:42:23.397Z,0.82
2022-09-17T02:45:01.354Z,1.00
2022-09-17T02:47:52.698Z,1.25
2022-09-17T02:50:36.175Z,0.90
2022-09-17T02:53:21.800Z,1.15
2022-09-17T02:56:01.044Z,1.02
2022-09-17T02:58:34.826Z,1.23
2022-09-17T03:01:16.109Z,1.48
2022-09-17T03:03:47.257Z,1.10
2022-09-17T03:06:18.238Z,0.80
2022-09-17T03:08:48.273Z,1.00
2022-09-17T03:11:17.043Z,1.10
2022-09-17T03:13:45.506Z,1.00
2022-09-17T03:16:14.031Z,1.00
2022-09-17T03:18:43.099Z,1.27
2022-09-17T03:21:12.612Z,0.77
2022-09-17T03:23:42.581Z,1.50
2022-09-17T03:26:11.320Z,1.15
2022-09-17T03:28:40.088Z,0.95
2022-09-17T03:31:08.850Z,1.15
2022-09-17T03:33:37.744Z,1.25
2022-09-17T03:36:06.557Z,1.00
2022-09-17T03:38:35.353Z,1.23
2022-09-17T03:41:07.990Z,1.20
2022-09-17T03:43:37.059Z,0.85
2022-09-17T03:46:06.353Z,1.20
2022-09-17T03:48:37.296Z,1.00
2022-09-17T03:51:06.379Z,0.90
2022-09-17T03:53:35.360Z,0.88
2022-09-17T03:56:07.574Z,1.05
2022-09-17T03:58:36.981Z,1.00
2022-09-17T04:01:05.566Z,1.30
2022-09-17T04:03:34.726Z,1.15
2022-09-17T04:06:03.463Z,0.77
2022-09-17T04:08:32.751Z,0.98
2022-09-17T04:11:01.283Z,0.90
2022-09-17T04:13:31.511Z,0.93
2022-09-17T04:16:00.237Z,0.90
2022-09-17T04:18:28.889Z,0.80
2022-09-17T04:20:57.925Z,0.75
2022-09-17T04:23:26.626Z,1.00
2022-09-17T04:25:55.134Z,1.38
2022-09-17T04:28:24.088Z,0.88
2022-09-17T04:30:54.260Z,0.95
2022-09-17T04:33:23.009Z,0.75
2022-09-17T04:35:52.008Z,1.05
2022-09-17T04:38:22.259Z,1.00
2022-09-17T04:40:51.646Z,1.00
2022-09-17T04:43:20.401Z,1.05
2022-09-17T04:45:49.541Z,0.63
2022-09-17T04:48:19.629Z,0.75
2022-09-17T04:50:48.405Z,1.00
2022-09-17T04:53:16.984Z,1.25
2022-09-17T04:55:45.852Z,1.00
2022-09-17T04:58:14.882Z,0.90
2022-09-17T05:00:43.592Z,1.60
2022-09-17T05:03:12.242Z,1.50
2022-09-17T05:05:42.578Z,1.90
2022-09-17T05:08:11.918Z,1.08
2022-09-17T05:10:40.449Z,1.48
2022-09-17T05:13:09.226Z,1.17
2022-09-17T05:15:37.937Z,0.98
2022-09-17T05:18:06.628Z,0.90
2022-09-17T05:20:35.662Z,1.63
2022-09-17T05:23:05.991Z,1.25
2022-09-17T05:25:34.603Z,1.15
2022-09-17T05:28:03.674Z,1.17
2022-09-17T05:30:32.457Z,0.90
2022-09-17T05:33:02.270Z,0.93
2022-09-17T05:35:31.958Z,0.93
2022-09-17T05:38:03.801Z,1.35
2022-09-17T05:40:34.178Z,1.13
2022-09-17T05:43:04.445Z,0.90
2022-09-17T05:45:36.154Z,0.80
2022-09-17T05:48:06.405Z,1.00
2022-09-17T05:50:35.581Z,1.00
2022-09-17T05:53:06.952Z,1.00
2022-09-17T05:55:37.888Z,1.02
2022-09-17T05:58:13.448Z,0.98
2022-09-17T06:00:42.749Z,0.82
2022-09-17T06:03:13.437Z,0.90
2022-09-17T06:05:42.542Z,1.15
2022-09-17T06:08:11.610Z,0.77
2022-09-17T06:10:41.814Z,1.13
2022-09-17T06:13:10.268Z,1.20
2022-09-17T06:15:39.161Z,0.98
2022-09-17T06:18:07.748Z,1.15
2022-09-17T06:20:36.516Z,0.60
2022-09-17T06:23:05.418Z,0.98
2022-09-17T06:25:34.056Z,0.80
2022-09-17T06:28:05.914Z,0.95
2022-09-17T06:30:34.850Z,0.75
2022-09-17T06:33:03.585Z,1.27
2022-09-17T06:35:32.376Z,0.90
2022-09-17T06:38:01.173Z,1.17
2022-09-17T06:40:29.763Z,1.23
2022-09-17T06:42:59.340Z,0.80
2022-09-17T06:45:29.963Z,1.10
2022-09-17T06:47:58.759Z,1.23
2022-09-17T06:50:27.489Z,1.35
2022-09-17T06:52:56.468Z,1.40
2022-09-17T06:55:25.231Z,0.98
2022-09-17T06:57:53.860Z,1.05
2022-09-17T07:00:22.579Z,1.00
2022-09-17T07:02:59.357Z,0.90
2022-09-17T07:05:32.887Z,1.13
2022-09-17T07:08:03.451Z,0.80
2022-09-17T07:10:33.595Z,0.82
2022-09-17T07:13:02.142Z,0.80
2022-09-17T07:15:31.158Z,1.00
2022-09-17T07:18:02.671Z,0.68
2022-09-17T07:20:31.228Z,1.10
2022-09-17T07:22:59.994Z,1.00
2022-09-17T07:25:29.217Z,1.00
2022-09-17T07:27:57.891Z,1.08
2022-09-17T07:30:26.903Z,0.80
2022-09-17T07:32:55.892Z,1.02
2022-09-17T07:35:26.110Z,1.10
2022-09-17T07:37:55.143Z,1.20
2022-09-17T07:40:24.108Z,0.80
2022-09-17T07:42:53.054Z,0.93
2022-09-17T07:45:21.562Z,1.00
2022-09-17T07:47:50.375Z,0.90
2022-09-17T07:50:18.933Z,1.48
2022-09-17T07:52:49.211Z,1.30
2022-09-17T07:55:18.072Z,0.88
2022-09-17T07:57:53.006Z,1.02
2022-09-17T08:00:21.983Z,1.17
2022-09-17T08:02:55.487Z,0.80
2022-09-17T08:05:25.887Z,0.98
2022-09-17T08:07:56.867Z,1.45
2022-09-17T08:10:27.147Z,1.65
2022-09-17T08:12:58.254Z,1.30
2022-09-17T08:15:27.350Z,1.00
2022-09-17T08:17:55.980Z,1.25
2022-09-17T08:20:26.307Z,1.23
2022-09-17T08:23:05.334Z,1.40
2022-09-17T08:25:33.949Z,1.05
2022-09-17T08:28:03.153Z,0.90
2022-09-17T08:30:32.538Z,1.50
2022-09-17T08:33:01.143Z,1.20
2022-09-17T08:35:30.010Z,1.02
2022-09-17T08:37:59.203Z,1.50
2022-09-17T08:40:31.559Z,1.40
2022-09-17T08:43:03.576Z,1.35
2022-09-17T08:45:32.369Z,1.00
2022-09-17T08:48:05.720Z,1.00
2022-09-17T08:50:39.274Z,1.13
2022-09-17T08:53:38.678Z,1.10
2022-09-17T08:56:14.472Z,1.10
2022-09-17T08:59:09.541Z,1.13
2022-09-17T09:01:46.761Z,1.33
2022-09-17T09:04:33.625Z,1.17
2022-09-17T09:07:04.990Z,0.77
2022-09-17T09:09:37.228Z,1.30
2022-09-17T09:12:14.965Z,1.30
2022-09-17T09:14:55.680Z,0.88
2022-09-17T09:17:28.292Z,0.90
2022-09-17T09:19:58.111Z,0.90
2022-09-17T09:22:47.026Z,1.35
2022-09-17T09:25:23.400Z,0.98
2022-09-17T09:28:03.584Z,0.90
2022-09-17T09:30:41.224Z,1.10
2022-09-17T09:33:14.782Z,1.10
2022-09-17T09:35:45.399Z,0.80
2022-09-17T09:38:22.956Z,1.00
2022-09-17T09:40:58.207Z,0.88
2022-09-17T09:44:02.294Z,1.00
2022-09-17T09:46:48.623Z,0.80
2022-09-17T09:49:26.416Z,1.15
2022-09-17T09:52:06.520Z,0.98
2022-09-17T09:54:49.835Z,1.08
2022-09-17T09:57:23.573Z,0.88
2022-09-17T10:00:28.082Z,0.90
2022-09-17T10:03:03.171Z,1.60
2022-09-17T10:05:33.337Z,1.00
2022-09-17T10:08:11.763Z,1.20
2022-09-17T10:10:56.762Z,1.10
2022-09-17T10:13:25.978Z,1.13
2022-09-17T10:15:56.393Z,1.10
2022-09-17T10:18:26.941Z,1.45
2022-09-17T10:20:58.519Z,1.50
2022-09-17T10:23:29.525Z,1.00
2022-09-17T10:25:58.953Z,1.23
2022-09-17T10:28:49.782Z,0.95
2022-09-17T10:31:20.509Z,1.30
2022-09-17T10:34:00.097Z,1.23
2022-09-17T10:36:43.890Z,1.00
2022-09-17T10:39:32.930Z,0.88
2022-09-17T10:42:03.599Z,1.10
2022-09-17T10:44:34.207Z,0.85
2022-09-17T10:47:07.443Z,0.98
2022-09-17T10:49:42.184Z,1.02
2022-09-17T10:52:15.984Z,1.25
2022-09-17T10:55:19.551Z,0.90
2022-09-17T10:58:03.266Z,1.00
2022-09-17T11:00:40.235Z,0.80
2022-09-17T11:03:39.332Z,1.05
2022-09-17T11:06:40.267Z,0.80
2022-09-17T11:09:21.968Z,1.08
2022-09-17T11:12:00.997Z,0.70
2022-09-17T11:14:50.614Z,0.90
2022-09-17T11:17:36.381Z,0.60
2022-09-17T11:20:16.156Z,0.82
2022-09-17T11:22:56.206Z,0.82
2022-09-17T11:25:42.237Z,1.05
2022-09-17T11:28:35.136Z,0.82
2022-09-17T11:31:14.067Z,0.90
2022-09-17T11:34:06.012Z,0.82
2022-09-17T11:36:44.251Z,0.52
2022-09-17T11:39:18.085Z,0.82
2022-09-17T11:41:50.403Z,0.77
2022-09-17T11:44:25.769Z,0.80
2022-09-17T11:46:59.759Z,1.00
2022-09-17T11:49:35.604Z,0.80
2022-09-17T11:52:09.473Z,0.98
2022-09-17T11:54:44.069Z,0.90
2022-09-17T11:57:17.567Z,0.80
2022-09-17T11:59:51.381Z,1.25
2022-09-17T12:02:26.471Z,0.80
2022-09-17T12:05:01.013Z,0.90
2022-09-17T12:07:41.554Z,0.80
2022-09-17T12:10:21.989Z,0.60
2022-09-17T12:12:57.068Z,0.80
2022-09-17T12:15:28.258Z,0.60
2022-09-17T12:18:33.221Z,0.70
2022-09-17T12:21:06.305Z,0.70
2022-09-17T12:23:42.113Z,0.60
2022-09-17T12:26:24.210Z,0.90
2022-09-17T12:28:58.851Z,0.98
2022-09-17T12:31:37.097Z,0.70
2022-09-17T12:34:22.773Z,0.90
2022-09-17T12:36:55.732Z,0.90
2022-09-17T12:40:01.694Z,0.80
2022-09-17T12:42:44.176Z,0.93
2022-09-17T12:45:36.238Z,0.80
2022-09-17T12:48:44.651Z,0.57
2022-09-17T12:51:33.072Z,0.95
2022-09-17T12:54:12.005Z,0.88
2022-09-17T12:56:55.056Z,0.60
2022-09-17T12:59:29.406Z,0.90
2022-09-17T13:02:03.454Z,0.60
2022-09-17T13:05:09.077Z,0.85
2022-09-17T13:08:06.811Z,0.60
2022-09-17T13:10:49.818Z,1.05
2022-09-17T13:13:32.435Z,0.75
2022-09-17T13:16:14.410Z,0.65
2022-09-17T13:21:52.809Z,0.90
2022-09-17T13:24:25.207Z,0.70
2022-09-17T13:26:55.287Z,0.70
2022-09-17T13:29:57.490Z,0.90
2022-09-17T13:32:47.484Z,0.77
2022-09-17T13:35:47.735Z,0.98
2022-09-17T13:38:20.229Z,0.85
2022-09-17T13:40:52.022Z,0.98
2022-09-17T13:43:27.853Z,0.88
2022-09-17T13:46:13.062Z,1.05
2022-09-17T13:48:58.798Z,0.70
2022-09-17T13:51:50.067Z,1.40
2022-09-17T13:54:21.398Z,0.88
2022-09-17T13:57:08.625Z,0.80
2022-09-17T13:59:38.611Z,1.20
2022-09-17T14:02:39.297Z,0.95
2022-09-17T14:05:39.906Z,1.02
2022-09-17T14:08:27.912Z,1.00
2022-09-17T14:11:03.141Z,0.77
2022-09-17T14:13:53.665Z,1.05
2022-09-17T14:16:46.397Z,0.65
2022-09-17T14:19:29.457Z,1.00
2022-09-17T14:22:02.450Z,1.02
2022-09-17T14:24:39.686Z,0.90
2022-09-17T14:27:30.752Z,1.33
2022-09-17T14:30:19.153Z,0.93
2022-09-17T14:32:59.323Z,0.90
2022-09-17T14:35:35.163Z,1.08
2022-09-17T14:38:11.546Z,1.17
2022-09-17T14:40:46.375Z,1.20
2022-09-17T14:43:21.391Z,1.05
2022-09-17T14:45:53.663Z,1.02
2022-09-17T14:48:31.185Z,1.00
2022-09-17T14:51:24.832Z,1.15
2022-09-17T14:56:58.046Z,1.00
2022-09-17T14:59:47.179Z,1.00
2022-09-17T15:02:38.038Z,1.20
2022-09-17T15:05:22.348Z,1.23
2022-09-17T15:07:51.775Z,0.95
2022-09-17T15:10:22.131Z,0.90
2022-09-17T15:12:52.786Z,1.20
2022-09-17T15:15:25.500Z,0.82
2022-09-17T15:17:55.086Z,1.02
2022-09-17T15:20:26.591Z,0.98
2022-09-17T15:23:03.772Z,0.77
2022-09-17T15:25:34.313Z,0.82
2022-09-17T15:28:13.693Z,0.80
2022-09-17T15:30:42.608Z,0.90
2022-09-17T15:33:13.529Z,0.70
2022-09-17T15:36:00.811Z,0.93
2022-09-17T15:38:33.001Z,0.80
2022-09-17T15:41:29.229Z,0.47
2022-09-17T15:44:28.965Z,1.02
2022-09-17T15:47:38.410Z,1.10
2022-09-17T15:50:18.641Z,0.93
2022-09-17T15:52:47.500Z,1.15
2022-09-17T15:55:34.891Z,0.77
2022-09-17T15:58:05.998Z,1.00
2022-09-17T16:00:36.249Z,1.10
2022-09-17T16:03:51.851Z,0.93
2022-09-17T16:06:40.085Z,0.70
2022-09-17T16:09:40.609Z,0.95
2022-09-17T16:12:12.083Z,0.70
2022-09-17T16:14:43.851Z,0.70
2022-09-17T16:17:35.654Z,0.75
2022-09-17T16:20:14.211Z,1.08
2022-09-17T16:22:43.869Z,0.90
2022-09-17T16:25:13.173Z,0.85
2022-09-17T16:27:49.496Z,0.77
2022-09-17T16:30:20.570Z,0.80
2022-09-17T16:32:50.572Z,0.68
2022-09-17T16:35:21.371Z,1.00
2022-09-17T16:37:51.301Z,0.90
2022-09-17T16:40:21.050Z,0.80
2022-09-17T16:42:50.010Z,1.00
2022-09-17T16:45:18.747Z,0.90
2022-09-17T16:47:47.625Z,1.20
2022-09-17T16:50:18.732Z,0.70
2022-09-17T16:52:47.628Z,1.35
2022-09-17T16:55:18.303Z,0.60
2022-09-17T16:57:47.316Z,1.20
2022-09-17T17:00:20.083Z,0.90
2022-09-17T17:02:55.115Z,1.00
2022-09-17T17:05:26.812Z,0.95
2022-09-17T17:07:56.177Z,1.13
2022-09-17T17:10:26.676Z,1.15
2022-09-17T17:12:55.385Z,1.30
2022-09-17T17:15:24.274Z,1.00
2022-09-17T17:17:53.165Z,1.10
2022-09-17T17:20:22.097Z,1.10
2022-09-17T17:22:52.913Z,1.30
2022-09-17T17:25:21.637Z,1.25
2022-09-17T17:27:50.483Z,1.13
2022-09-17T17:30:19.302Z,1.58
2022-09-17T17:32:51.989Z,1.40
2022-09-17T17:35:20.973Z,1.60
2022-09-17T17:37:50.291Z,1.63
2022-09-17T17:40:20.411Z,1.25
2022-09-17T17:42:53.668Z,1.50
2022-09-17T17:45:22.855Z,1.73
2022-09-17T17:47:53.115Z,1.20
2022-09-17T17:50:21.698Z,1.80
2022-09-17T17:52:50.395Z,1.65
2022-09-17T17:55:20.433Z,1.33
2022-09-17T17:57:49.018Z,1.70
2022-09-17T18:00:18.469Z,1.95
2022-09-17T18:02:47.239Z,1.80
2022-09-17T18:05:15.882Z,2.25
2022-09-17T18:07:44.517Z,1.60
2022-09-17T18:10:13.469Z,1.92
2022-09-17T18:12:50.173Z,1.75
2022-09-17T18:15:19.215Z,1.95
2022-09-17T18:17:50.133Z,2.45
2022-09-17T18:20:19.541Z,1.65
2022-09-17T18:22:48.407Z,1.95
2022-09-17T18:25:17.100Z,1.73
2022-09-17T18:27:47.306Z,2.25
2022-09-17T18:30:16.241Z,1.48
2022-09-17T18:32:44.893Z,1.73
2022-09-17T18:35:13.676Z,1.88
2022-09-17T18:37:42.499Z,2.03
2022-09-17T18:40:11.456Z,1.77
2022-09-17T18:42:40.150Z,1.33
2022-09-17T18:45:11.450Z,1.70
2022-09-17T18:47:40.004Z,1.85
2022-09-17T18:50:09.236Z,1.90
2022-09-17T18:52:38.301Z,1.85
2022-09-17T18:55:07.993Z,1.55
2022-09-17T18:57:36.588Z,1.80
2022-09-17T19:00:08.008Z,1.60
2022-09-17T19:02:38.125Z,1.58
2022-09-17T19:05:07.788Z,1.70
2022-09-17T19:07:36.253Z,2.00
2022-09-17T19:10:05.212Z,1.65
2022-09-17T19:12:33.906Z,1.67
2022-09-17T19:15:02.775Z,2.13
2022-09-17T19:17:31.535Z,1.30
2022-09-17T19:20:01.841Z,2.00
2022-09-17T19:22:31.504Z,1.70
2022-09-17T19:25:00.453Z,1.80
2022-09-17T19:27:31.232Z,1.65
2022-09-17T19:30:00.585Z,1.88
2022-09-17T19:32:29.459Z,2.53
2022-09-17T19:34:58.464Z,1.60
2022-09-17T19:37:28.470Z,2.88
2022-09-17T19:39:57.239Z,2.67
2022-09-17T19:42:26.365Z,2.90
2022-09-17T19:44:54.837Z,3.22
2022-09-17T19:47:23.647Z,2.97
2022-09-17T19:49:52.587Z,2.50
2022-09-17T19:52:24.463Z,2.30
2022-09-17T19:54:54.623Z,2.50
2022-09-17T19:57:23.145Z,2.10
2022-09-17T19:59:51.917Z,2.78
2022-09-17T20:02:21.571Z,2.15
2022-09-17T20:04:50.325Z,2.78
2022-09-17T20:07:18.974Z,2.70
2022-09-17T20:09:48.228Z,2.10
2022-09-17T20:12:18.237Z,1.90
2022-09-17T20:14:47.455Z,2.33
2022-09-17T20:17:16.282Z,2.72
2022-09-17T20:19:45.133Z,2.55
2022-09-17T20:22:13.916Z,2.03
2022-09-17T20:24:43.610Z,2.75
2022-09-17T20:27:13.461Z,2.00
2022-09-17T20:29:43.541Z,1.80
2022-09-17T20:32:12.423Z,2.53
2022-09-17T20:34:41.095Z,1.98
2022-09-17T20:37:13.412Z,2.28
2022-09-17T20:39:42.800Z,2.08
2022-09-17T20:42:11.531Z,1.98
2022-09-17T20:44:40.102Z,1.58
2022-09-17T20:47:10.422Z,1.55
2022-09-17T20:49:39.522Z,1.45
2022-09-17T20:52:08.318Z,1.58
2022-09-17T20:54:37.144Z,1.45
2022-09-17T20:57:05.923Z,1.83
2022-09-17T20:59:50.950Z,1.80
2022-09-17T21:02:22.464Z,1.65
2022-09-17T21:04:51.405Z,1.45
2022-09-17T21:07:20.185Z,1.83
2022-09-17T21:09:49.189Z,1.80
2022-09-17T21:12:17.743Z,1.02
2022-09-17T21:14:46.371Z,1.70
2022-09-17T21:17:15.341Z,1.67
2022-09-17T21:19:45.537Z,1.50
2022-09-17T21:22:14.183Z,1.77
2022-09-17T21:24:43.061Z,2.00
2022-09-17T21:27:11.834Z,1.80
2022-09-17T21:29:40.373Z,1.67
2022-09-17T21:32:09.298Z,1.90
2022-09-17T21:34:37.968Z,1.90
2022-09-17T21:37:08.108Z,1.33
2022-09-17T21:39:36.868Z,1.45
2022-09-17T21:42:05.608Z,1.45
2022-09-17T21:44:34.284Z,1.42
2022-09-17T21:47:03.068Z,2.00
2022-09-17T21:49:31.663Z,1.92
2022-09-17T21:52:00.244Z,1.20
2022-09-17T21:54:30.692Z,1.48
2022-09-17T21:57:00.125Z,1.92
2022-09-17T21:59:29.030Z,1.55
2022-09-17T22:01:58.267Z,1.52
2022-09-17T22:04:27.060Z,1.70
2022-09-17T22:06:55.726Z,1.60
2022-09-17T22:09:26.789Z,1.08
2022-09-17T22:11:56.956Z,1.48
2022-09-17T22:14:26.451Z,1.65
2022-09-17T22:16:58.830Z,1.45
2022-09-17T22:19:27.875Z,1.52
2022-09-17T22:21:57.461Z,1.80
2022-09-17T22:24:27.743Z,1.45
2022-09-17T22:26:58.563Z,1.20
2022-09-17T22:29:31.629Z,1.73
2022-09-17T22:32:00.725Z,1.38
2022-09-17T22:34:29.838Z,1.58
2022-09-17T22:36:59.170Z,1.75
2022-09-17T22:39:27.945Z,1.30
2022-09-17T22:41:58.020Z,1.60
2022-09-17T22:44:26.964Z,1.40
2022-09-17T22:46:55.865Z,1.10
2022-09-17T22:49:24.540Z,1.48
2022-09-17T22:51:53.242Z,1.55
2022-09-17T22:54:22.031Z,1.13
2022-09-17T22:56:50.693Z,1.17
2022-09-17T22:59:21.812Z,1.20
2022-09-17T23:01:50.670Z,1.48
2022-09-17T23:04:19.208Z,0.98
2022-09-17T23:06:47.842Z,1.08
2022-09-17T23:09:16.997Z,1.13
2022-09-17T23:11:45.688Z,1.10
2022-09-17T23:14:17.341Z,0.93
2022-09-17T23:16:49.123Z,1.63
2022-09-17T23:19:20.686Z,1.35
2022-09-17T23:21:49.882Z,1.27
2022-09-17T23:24:21.019Z,1.02
2022-09-17T23:26:51.166Z,1.23
2022-09-17T23:29:20.793Z,1.60
2022-09-17T23:31:50.766Z,1.35
2022-09-17T23:34:19.787Z,1.08
2022-09-17T23:36:48.583Z,1.50
2022-09-17T23:39:17.226Z,1.55
2022-09-17T23:41:46.021Z,1.35
2022-09-17T23:44:16.295Z,1.55
2022-09-17T23:46:46.622Z,1.17
2022-09-17T23:49:17.713Z,1.55
2022-09-17T23:51:46.542Z,1.92
2022-09-17T23:54:15.640Z,1.60
2022-09-17T23:56:44.554Z,1.63
2022-09-17T23:59:13.558Z,1.85
